Terminal Aerodrome Forecast
Issued by NWS Tuscon, AZ

Home | Current Version | Previous Version | Text Only | Print | Product List | Glossary On
Versions: 1 2 3 4 5 6 7 8 9 10 11 12 13 14
697
FTUS45 KTWC 242334
TAFTUS
TAF
KTUS 242334Z 2500/2524 31011KT P6SM SCT070
      TEMPO 2500/2502 BKN070
     FM250200 27006KT P6SM SCT080
     FM250700 17004KT P6SM FEW080
     FM251900 34007KT P6SM FEW090 SCT250=

USA.gov is the U.S. government's official web portal to all federal, state and local government web resources and services.